sensor_id;sensor_type;location;lat;lon;timestamp;pressure;altitude;pressure_sealevel;temperature;humidity
20909;BME280;10614;53.198;6.570;2023-08-17T00:10:14;102248.94;;;17.62;100.00
20909;BME280;10614;53.198;6.570;2023-08-17T00:12:16;102230.97;;;17.48;100.00
20909;BME280;10614;53.198;6.570;2023-08-17T00:14:17;102229.25;;;17.47;100.00
20909;BME280;10614;53.198;6.570;2023-08-17T00:16:19;102274.72;;;17.80;100.00
20909;BME280;10614;53.198;6.570;2023-08-17T00:18:21;102280.66;;;17.87;100.00
20909;BME280;10614;53.198;6.570;2023-08-17T00:20:23;102250.59;;;17.64;100.00
20909;BME280;10614;53.198;6.570;2023-08-17T00:22:25;102197.63;;;17.39;100.00
20909;BME280;10614;53.198;6.570;2023-08-17T00:24:26;102241.97;;;17.59;100.00
20909;BME280;10614;53.198;6.570;2023-08-17T00:29:23;102247.94;;;17.64;100.00
20909;BME280;10614;53.198;6.570;2023-08-17T00:31:24;102231.38;;;17.58;100.00
20909;BME280;10614;53.198;6.570;2023-08-17T00:33:26;102253.78;;;17.72;100.00
20909;BME280;10614;53.198;6.570;2023-08-17T00:35:28;102280.66;;;17.87;100.00
20909;BME280;10614;53.198;6.570;2023-08-17T00:37:30;102246.72;;;17.71;100.00
20909;BME280;10614;53.198;6.570;2023-08-17T00:39:32;102211.41;;;17.49;100.00
20909;BME280;10614;53.198;6.570;2023-08-17T00:50:30;102254.28;;;17.62;100.00
20909;BME280;10614;53.198;6.570;2023-08-17T00:52:33;102198.53;;;17.21;100.00
20909;BME280;10614;53.198;6.570;2023-08-17T00:54:35;102228.66;;;17.40;100.00
20909;BME280;10614;53.198;6.570;2023-08-17T00:56:37;102230.97;;;17.29;100.00
20909;BME280;10614;53.198;6.570;2023-08-17T00:58:39;102213.16;;;17.11;100.00
20909;BME280;10614;53.198;6.570;2023-08-17T01:00:41;102233.34;;;17.16;100.00
20909;BME280;10614;53.198;6.570;2023-08-17T01:02:42;102192.88;;;16.89;100.00
20909;BME280;10614;53.198;6.570;2023-08-17T01:04:44;102191.59;;;16.77;100.00
20909;BME280;10614;53.198;6.570;2023-08-17T01:06:48;102220.91;;;16.96;100.00
20909;BME280;10614;53.198;6.570;2023-08-17T01:08:50;102214.09;;;16.91;100.00
20909;BME280;10614;53.198;6.570;2023-08-17T01:10:57;102229.69;;;16.98;100.00
20909;BME280;10614;53.198;6.570;2023-08-17T01:13:10;102252.72;;;17.18;100.00
20909;BME280;10614;53.198;6.570;2023-08-17T01:15:15;102214.59;;;16.99;100.00
20909;BME280;10614;53.198;6.570;2023-08-17T01:17:22;102245.53;;;17.20;100.00
20909;BME280;10614;53.198;6.570;2023-08-17T01:19:26;102257.94;;;17.21;100.00
20909;BME280;10614;53.198;6.570;2023-08-17T01:21:35;102257.13;;;17.19;100.00
20909;BME280;10614;53.198;6.570;2023-08-17T01:23:39;102264.31;;;17.17;100.00
20909;BME280;10614;53.198;6.570;2023-08-17T01:25:41;102202.75;;;16.85;100.00
20909;BME280;10614;53.198;6.570;2023-08-17T01:27:44;102255.47;;;17.17;100.00
20909;BME280;10614;53.198;6.570;2023-08-17T01:29:47;102201.91;;;16.85;100.00
20909;BME280;10614;53.198;6.570;2023-08-17T01:31:53;102171.78;;;16.64;100.00
20909;BME280;10614;53.198;6.570;2023-08-17T01:34:00;102252.16;;;17.12;100.00
20909;BME280;10614;53.198;6.570;2023-08-17T01:36:11;102216.88;;;16.87;100.00
20909;BME280;10614;53.198;6.570;2023-08-17T01:38:18;102187.47;;;16.70;100.00
20909;BME280;10614;53.198;6.570;2023-08-17T01:40:24;102192.78;;;16.70;100.00
20909;BME280;10614;53.198;6.570;2023-08-17T01:42:29;102189.47;;;16.65;100.00
20909;BME280;10614;53.198;6.570;2023-08-17T01:44:31;102251.88;;;16.97;100.00
20909;BME280;10614;53.198;6.570;2023-08-17T01:46:34;102257.28;;;16.96;100.00
20909;BME280;10614;53.198;6.570;2023-08-17T01:48:35;102165.72;;;16.41;100.00
20909;BME280;10614;53.198;6.570;2023-08-17T01:50:37;102190.00;;;16.53;100.00
20909;BME280;10614;53.198;6.570;2023-08-17T01:52:39;102178.84;;;16.44;100.00
20909;BME280;10614;53.198;6.570;2023-08-17T01:54:41;102188.44;;;16.49;100.00
20909;BME280;10614;53.198;6.570;2023-08-17T02:36:54;102221.44;;;16.63;100.00
20909;BME280;10614;53.198;6.570;2023-08-17T02:38:56;102210.34;;;16.54;100.00
20909;BME280;10614;53.198;6.570;2023-08-17T02:40:58;102220.03;;;16.55;100.00
20909;BME280;10614;53.198;6.570;2023-08-17T02:43:00;102227.91;;;16.58;100.00
20909;BME280;10614;53.198;6.570;2023-08-17T02:45:02;102215.81;;;16.51;100.00
20909;BME280;10614;53.198;6.570;2023-08-17T02:47:04;102217.53;;;16.52;100.00
20909;BME280;10614;53.198;6.570;2023-08-17T02:49:06;102215.00;;;16.49;100.00
20909;BME280;10614;53.198;6.570;2023-08-17T02:51:08;102208.81;;;16.48;100.00
20909;BME280;10614;53.198;6.570;2023-08-17T02:53:12;102190.06;;;16.31;100.00
20909;BME280;10614;53.198;6.570;2023-08-17T02:55:13;102192.38;;;16.38;100.00
20909;BME280;10614;53.198;6.570;2023-08-17T02:57:15;102204.63;;;16.42;100.00
20909;BME280;10614;53.198;6.570;2023-08-17T02:59:17;102223.78;;;16.51;100.00
20909;BME280;10614;53.198;6.570;2023-08-17T03:01:18;102221.78;;;16.56;100.00
20909;BME280;10614;53.198;6.570;2023-08-17T03:03:20;102208.75;;;16.50;100.00
20909;BME280;10614;53.198;6.570;2023-08-17T03:05:22;102240.19;;;16.60;100.00
20909;BME280;10614;53.198;6.570;2023-08-17T03:07:24;102199.44;;;16.39;100.00
20909;BME280;10614;53.198;6.570;2023-08-17T03:09:28;102224.69;;;16.50;100.00
20909;BME280;10614;53.198;6.570;2023-08-17T03:11:30;102215.41;;;16.39;100.00
20909;BME280;10614;53.198;6.570;2023-08-17T03:13:32;102221.50;;;16.41;100.00
20909;BME280;10614;53.198;6.570;2023-08-17T03:15:33;102186.88;;;16.22;100.00
20909;BME280;10614;53.198;6.570;2023-08-17T03:17:40;102206.81;;;16.33;100.00
20909;BME280;10614;53.198;6.570;2023-08-17T03:19:42;102210.19;;;16.36;100.00
20909;BME280;10614;53.198;6.570;2023-08-17T03:21:44;102197.53;;;16.22;100.00
20909;BME280;10614;53.198;6.570;2023-08-17T03:23:46;102202.03;;;16.20;100.00
20909;BME280;10614;53.198;6.570;2023-08-17T03:25:52;102221.63;;;16.38;100.00
20909;BME280;10614;53.198;6.570;2023-08-17T03:27:54;102201.09;;;16.21;100.00
20909;BME280;10614;53.198;6.570;2023-08-17T03:29:56;102181.88;;;16.15;100.00
20909;BME280;10614;53.198;6.570;2023-08-17T03:31:58;102187.13;;;16.16;100.00
20909;BME280;10614;53.198;6.570;2023-08-17T03:34:00;102182.94;;;16.11;100.00
20909;BME280;10614;53.198;6.570;2023-08-17T03:36:03;102178.56;;;16.10;100.00
20909;BME280;10614;53.198;6.570;2023-08-17T03:38:05;102187.94;;;16.18;100.00
20909;BME280;10614;53.198;6.570;2023-08-17T03:40:08;102188.13;;;16.14;100.00
20909;BME280;10614;53.198;6.570;2023-08-17T03:42:11;102177.69;;;16.09;100.00
20909;BME280;10614;53.198;6.570;2023-08-17T03:44:13;102216.63;;;16.31;100.00
20909;BME280;10614;53.198;6.570;2023-08-17T03:46:16;102220.34;;;16.27;100.00
20909;BME280;10614;53.198;6.570;2023-08-17T03:48:18;102216.03;;;16.24;100.00
20909;BME280;10614;53.198;6.570;2023-08-17T03:50:19;102196.22;;;16.11;100.00
20909;BME280;10614;53.198;6.570;2023-08-17T03:52:21;102199.81;;;16.10;100.00
20909;BME280;10614;53.198;6.570;2023-08-17T03:54:23;102195.63;;;16.04;100.00
20909;BME280;10614;53.198;6.570;2023-08-17T03:56:25;102216.50;;;16.13;100.00
20909;BME280;10614;53.198;6.570;2023-08-17T03:58:28;102191.59;;;15.94;100.00
20909;BME280;10614;53.198;6.570;2023-08-17T04:00:34;102188.22;;;15.90;100.00
20909;BME280;10614;53.198;6.570;2023-08-17T04:02:39;102220.25;;;16.08;100.00
20909;BME280;10614;53.198;6.570;2023-08-17T04:04:41;102196.19;;;15.90;100.00
20909;BME280;10614;53.198;6.570;2023-08-17T04:06:42;102201.75;;;15.84;100.00
20909;BME280;10614;53.198;6.570;2023-08-17T04:08:44;102212.03;;;15.92;100.00
20909;BME280;10614;53.198;6.570;2023-08-17T04:10:46;102196.75;;;15.76;100.00
20909;BME280;10614;53.198;6.570;2023-08-17T04:12:48;102204.34;;;15.86;100.00
20909;BME280;10614;53.198;6.570;2023-08-17T04:14:51;102219.22;;;15.90;100.00
20909;BME280;10614;53.198;6.570;2023-08-17T04:16:53;102209.84;;;15.81;100.00
20909;BME280;10614;53.198;6.570;2023-08-17T04:18:54;102207.28;;;15.78;100.00
20909;BME280;10614;53.198;6.570;2023-08-17T04:20:55;102212.41;;;15.82;100.00
20909;BME280;10614;53.198;6.570;2023-08-17T04:22:56;102212.50;;;15.81;100.00
20909;BME280;10614;53.198;6.570;2023-08-17T04:24:58;102199.63;;;15.70;100.00
20909;BME280;10614;53.198;6.570;2023-08-17T04:26:59;102206.59;;;15.73;100.00
20909;BME280;10614;53.198;6.570;2023-08-17T04:29:03;102225.63;;;15.84;100.00
20909;BME280;10614;53.198;6.570;2023-08-17T04:31:06;102198.00;;;15.66;100.00
20909;BME280;10614;53.198;6.570;2023-08-17T04:33:08;102198.00;;;15.66;100.00
20909;BME280;10614;53.198;6.570;2023-08-17T04:35:10;102199.72;;;15.67;100.00
20909;BME280;10614;53.198;6.570;2023-08-17T04:37:12;102186.69;;;15.61;100.00
20909;BME280;10614;53.198;6.570;2023-08-17T04:39:14;102159.22;;;15.40;100.00
20909;BME280;10614;53.198;6.570;2023-08-17T04:41:16;102232.88;;;15.80;100.00
20909;BME280;10614;53.198;6.570;2023-08-17T04:43:19;102200.81;;;15.61;100.00
20909;BME280;10614;53.198;6.570;2023-08-17T04:45:21;102225.94;;;15.76;100.00
20909;BME280;10614;53.198;6.570;2023-08-17T04:47:25;102198.97;;;15.63;100.00
20909;BME280;10614;53.198;6.570;2023-08-17T04:49:27;102206.13;;;15.61;100.00
20909;BME280;10614;53.198;6.570;2023-08-17T04:51:28;102219.97;;;15.70;100.00
20909;BME280;10614;53.198;6.570;2023-08-17T04:53:29;102225.34;;;15.68;100.00
20909;BME280;10614;53.198;6.570;2023-08-17T04:55:31;102233.06;;;15.76;100.00
20909;BME280;10614;53.198;6.570;2023-08-17T04:57:34;102220.28;;;15.62;100.00
20909;BME280;10614;53.198;6.570;2023-08-17T04:59:35;102213.53;;;15.53;100.00
20909;BME280;10614;53.198;6.570;2023-08-17T05:01:37;102228.06;;;15.67;100.00
20909;BME280;10614;53.198;6.570;2023-08-17T05:03:41;102184.84;;;15.41;100.00
20909;BME280;10614;53.198;6.570;2023-08-17T05:05:43;102198.38;;;15.57;100.00
20909;BME280;10614;53.198;6.570;2023-08-17T05:07:45;102169.97;;;15.37;100.00
20909;BME280;10614;53.198;6.570;2023-08-17T05:09:47;102215.84;;;15.62;100.00
20909;BME280;10614;53.198;6.570;2023-08-17T05:11:49;102210.88;;;15.53;100.00
20909;BME280;10614;53.198;6.570;2023-08-17T05:13:51;102182.22;;;15.39;100.00
20909;BME280;10614;53.198;6.570;2023-08-17T05:15:53;102208.88;;;15.60;100.00
20909;BME280;10614;53.198;6.570;2023-08-17T05:17:56;102209.84;;;15.57;100.00
20909;BME280;10614;53.198;6.570;2023-08-17T05:19:59;102217.63;;;15.62;100.00
20909;BME280;10614;53.198;6.570;2023-08-17T05:22:01;102209.72;;;15.60;100.00
20909;BME280;10614;53.198;6.570;2023-08-17T05:24:04;102204.47;;;15.59;100.00
20909;BME280;10614;53.198;6.570;2023-08-17T05:26:07;102217.31;;;15.71;100.00
20909;BME280;10614;53.198;6.570;2023-08-17T05:28:09;102212.06;;;15.68;100.00
20909;BME280;10614;53.198;6.570;2023-08-17T05:30:11;102209.94;;;15.78;100.00
20909;BME280;10614;53.198;6.570;2023-08-17T05:32:13;102166.44;;;15.58;100.00
20909;BME280;10614;53.198;6.570;2023-08-17T05:34:16;102187.25;;;15.69;100.00
20909;BME280;10614;53.198;6.570;2023-08-17T05:36:19;102187.94;;;15.76;100.00
20909;BME280;10614;53.198;6.570;2023-08-17T05:38:25;102219.00;;;15.94;100.00
20909;BME280;10614;53.198;6.570;2023-08-17T05:40:29;102199.88;;;15.86;100.00
20909;BME280;10614;53.198;6.570;2023-08-17T05:42:32;102220.34;;;16.06;100.00
20909;BME280;10614;53.198;6.570;2023-08-17T05:44:34;102192.59;;;15.91;100.00
20909;BME280;10614;53.198;6.570;2023-08-17T05:46:36;102197.00;;;15.92;100.00
20909;BME280;10614;53.198;6.570;2023-08-17T05:48:38;102214.94;;;16.08;100.00
20909;BME280;10614;53.198;6.570;2023-08-17T05:50:41;102197.56;;;15.99;100.00
20909;BME280;10614;53.198;6.570;2023-08-17T05:52:44;102208.81;;;16.06;100.00
20909;BME280;10614;53.198;6.570;2023-08-17T05:54:46;102185.00;;;16.04;100.00
20909;BME280;10614;53.198;6.570;2023-08-17T05:56:48;102207.41;;;16.19;100.00
20909;BME280;10614;53.198;6.570;2023-08-17T05:58:50;102234.91;;;16.38;100.00
20909;BME280;10614;53.198;6.570;2023-08-17T06:00:51;102196.63;;;16.22;100.00
20909;BME280;10614;53.198;6.570;2023-08-17T06:02:53;102214.44;;;16.40;100.00
20909;BME280;10614;53.198;6.570;2023-08-17T06:04:55;102182.56;;;16.40;100.00
20909;BME280;10614;53.198;6.570;2023-08-17T06:06:58;102193.84;;;16.45;100.00
20909;BME280;10614;53.198;6.570;2023-08-17T06:09:01;102196.47;;;16.47;100.00
20909;BME280;10614;53.198;6.570;2023-08-17T06:11:03;102173.00;;;16.36;100.00
20909;BME280;10614;53.198;6.570;2023-08-17T06:13:06;102195.31;;;16.53;100.00
20909;BME280;10614;53.198;6.570;2023-08-17T06:15:09;102187.63;;;16.46;100.00
20909;BME280;10614;53.198;6.570;2023-08-17T06:17:11;102189.13;;;16.52;100.00
20909;BME280;10614;53.198;6.570;2023-08-17T06:19:16;102194.00;;;16.63;100.00
20909;BME280;10614;53.198;6.570;2023-08-17T06:21:18;102208.81;;;16.68;100.00
20909;BME280;10614;53.198;6.570;2023-08-17T06:23:20;102229.66;;;16.79;100.00
20909;BME280;10614;53.198;6.570;2023-08-17T06:25:24;102212.06;;;16.75;100.00
20909;BME280;10614;53.198;6.570;2023-08-17T06:27:27;102191.34;;;16.63;100.00
20909;BME280;10614;53.198;6.570;2023-08-17T06:29:29;102199.97;;;16.68;100.00
20909;BME280;10614;53.198;6.570;2023-08-17T06:31:31;102201.56;;;16.72;100.00
20909;BME280;10614;53.198;6.570;2023-08-17T06:33:34;102206.75;;;16.75;100.00
20909;BME280;10614;53.198;6.570;2023-08-17T06:35:37;102232.56;;;16.94;100.00
20909;BME280;10614;53.198;6.570;2023-08-17T06:37:38;102213.41;;;16.85;100.00
20909;BME280;10614;53.198;6.570;2023-08-17T06:39:41;102205.31;;;16.88;100.00
20909;BME280;10614;53.198;6.570;2023-08-17T06:41:44;102205.81;;;16.97;100.00
20909;BME280;10614;53.198;6.570;2023-08-17T06:43:47;102204.09;;;16.96;100.00
20909;BME280;10614;53.198;6.570;2023-08-17T06:45:53;102241.59;;;17.29;100.00
20909;BME280;10614;53.198;6.570;2023-08-17T06:48:01;102251.88;;;17.37;100.00
20909;BME280;10614;53.198;6.570;2023-08-17T06:50:05;102253.31;;;17.44;100.00
20909;BME280;10614;53.198;6.570;2023-08-17T06:52:09;102215.56;;;17.36;100.00
20909;BME280;10614;53.198;6.570;2023-08-17T06:54:16;102211.03;;;17.38;100.00
20909;BME280;10614;53.198;6.570;2023-08-17T06:56:22;102221.84;;;17.54;100.00
20909;BME280;10614;53.198;6.570;2023-08-17T06:58:30;102201.47;;;17.52;100.00
20909;BME280;10614;53.198;6.570;2023-08-17T07:00:39;102240.75;;;17.85;100.00
20909;BME280;10614;53.198;6.570;2023-08-17T07:02:51;102229.72;;;17.93;100.00
20909;BME280;10614;53.198;6.570;2023-08-17T07:04:59;102202.66;;;17.83;100.00
20909;BME280;10614;53.198;6.570;2023-08-17T07:07:19;102240.88;;;18.19;100.00
20909;BME280;10614;53.198;6.570;2023-08-17T07:09:42;102201.13;;;17.97;100.00
20909;BME280;10614;53.198;6.570;2023-08-17T07:11:52;102199.25;;;17.99;100.00
20909;BME280;10614;53.198;6.570;2023-08-17T07:14:20;102202.50;;;18.05;100.00
20909;BME280;10614;53.198;6.570;2023-08-17T07:16:41;102210.16;;;18.11;100.00
20909;BME280;10614;53.198;6.570;2023-08-17T07:19:00;102222.00;;;18.23;100.00
20909;BME280;10614;53.198;6.570;2023-08-17T07:21:11;102197.91;;;18.07;100.00
20909;BME280;10614;53.198;6.570;2023-08-17T07:23:25;102215.88;;;18.21;100.00
20909;BME280;10614;53.198;6.570;2023-08-17T07:25:39;102220.69;;;18.32;100.00
20909;BME280;10614;53.198;6.570;2023-08-17T07:28:01;102252.13;;;18.60;100.00
20909;BME280;10614;53.198;6.570;2023-08-17T07:30:43;102203.91;;;18.30;100.00
20909;BME280;10614;53.198;6.570;2023-08-17T07:33:02;102255.75;;;18.59;100.00
20909;BME280;10614;53.198;6.570;2023-08-17T07:35:23;102204.75;;;18.30;100.00
20909;BME280;10614;53.198;6.570;2023-08-17T07:37:42;102202.25;;;18.45;100.00
20909;BME280;10614;53.198;6.570;2023-08-17T07:40:00;102232.91;;;18.53;100.00
20909;BME280;10614;53.198;6.570;2023-08-17T07:42:28;102229.38;;;18.53;100.00
20909;BME280;10614;53.198;6.570;2023-08-17T07:44:56;102237.78;;;18.63;100.00
20909;BME280;10614;53.198;6.570;2023-08-17T09:01:26;102248.03;;;20.93;90.33
20909;BME280;10614;53.198;6.570;2023-08-17T09:03:28;102187.78;;;20.57;90.10
20909;BME280;10614;53.198;6.570;2023-08-17T09:05:33;102188.84;;;20.69;90.10
20909;BME280;10614;53.198;6.570;2023-08-17T09:07:37;102161.72;;;20.60;89.13
20909;BME280;10614;53.198;6.570;2023-08-17T09:09:45;102240.13;;;21.20;88.21
20909;BME280;10614;53.198;6.570;2023-08-17T09:11:47;102242.78;;;21.20;86.37
20909;BME280;10614;53.198;6.570;2023-08-17T09:13:49;102196.88;;;20.83;85.36
20909;BME280;10614;53.198;6.570;2023-08-17T09:15:51;102184.91;;;20.60;86.53
20909;BME280;10614;53.198;6.570;2023-08-17T09:17:55;102166.44;;;20.41;87.21
20909;BME280;10614;53.198;6.570;2023-08-17T09:19:57;102236.16;;;20.68;87.56
20909;BME280;10614;53.198;6.570;2023-08-17T09:22:00;102188.75;;;20.26;88.73
20909;BME280;10614;53.198;6.570;2023-08-17T09:24:02;102161.22;;;20.09;89.45
20909;BME280;10614;53.198;6.570;2023-08-17T09:26:09;102151.03;;;20.16;89.49
20909;BME280;10614;53.198;6.570;2023-08-17T09:28:27;102240.28;;;20.74;87.99
20909;BME280;10614;53.198;6.570;2023-08-17T09:30:57;102242.28;;;20.70;88.98
20909;BME280;10614;53.198;6.570;2023-08-17T09:33:15;102215.63;;;20.53;89.54
20909;BME280;10614;53.198;6.570;2023-08-17T09:39:05;102172.44;;;20.00;89.94
20909;BME280;10614;53.198;6.570;2023-08-17T09:47:12;102164.97;;;19.59;92.53
20909;BME280;10614;53.198;6.570;2023-08-17T09:52:24;102118.09;;;19.06;93.53
20909;BME280;10614;53.198;6.570;2023-08-17T09:54:30;102155.34;;;19.25;95.04
20909;BME280;10614;53.198;6.570;2023-08-17T09:56:35;102174.72;;;19.44;96.30
20909;BME280;10614;53.198;6.570;2023-08-17T10:05:11;102197.38;;;19.53;97.63
20909;BME280;10614;53.198;6.570;2023-08-17T10:13:28;102131.78;;;19.63;99.72
20909;BME280;10614;53.198;6.570;2023-08-17T10:15:34;102140.06;;;19.90;99.81
20909;BME280;10614;53.198;6.570;2023-08-17T10:17:43;102139.91;;;20.08;98.79
20909;BME280;10614;53.198;6.570;2023-08-17T10:19:49;102137.69;;;20.30;97.39
20909;BME280;10614;53.198;6.570;2023-08-17T10:21:58;102188.84;;;20.83;95.70
20909;BME280;10614;53.198;6.570;2023-08-17T10:24:02;102164.28;;;20.76;94.46
20909;BME280;10614;53.198;6.570;2023-08-17T10:26:05;102136.88;;;20.73;93.91
20909;BME280;10614;53.198;6.570;2023-08-17T10:28:09;102161.44;;;20.94;92.79
20909;BME280;10614;53.198;6.570;2023-08-17T10:30:13;102123.56;;;20.85;91.82
20909;BME280;10614;53.198;6.570;2023-08-17T10:32:16;102161.69;;;21.18;92.44
20909;BME280;10614;53.198;6.570;2023-08-17T10:34:19;102164.34;;;21.32;91.83
20909;BME280;10614;53.198;6.570;2023-08-17T10:36:21;102176.28;;;21.55;91.32
20909;BME280;10614;53.198;6.570;2023-08-17T10:38:23;102175.28;;;21.70;91.05
20909;BME280;10614;53.198;6.570;2023-08-17T10:40:27;102178.38;;;22.04;91.96
20909;BME280;10614;53.198;6.570;2023-08-17T10:42:32;102153.19;;;22.07;90.01
20909;BME280;10614;53.198;6.570;2023-08-17T10:44:43;102147.56;;;22.37;89.18
20909;BME280;10614;53.198;6.570;2023-08-17T10:46:47;102139.19;;;22.54;86.98
20909;BME280;10614;53.198;6.570;2023-08-17T10:48:48;102184.72;;;22.94;85.45
20909;BME280;10614;53.198;6.570;2023-08-17T10:51:01;102170.44;;;23.07;84.68
20909;BME280;10614;53.198;6.570;2023-08-17T10:53:04;102139.63;;;23.00;84.43
20909;BME280;10614;53.198;6.570;2023-08-17T10:55:35;102142.94;;;23.40;83.94
20909;BME280;10614;53.198;6.570;2023-08-17T10:57:40;102116.31;;;23.37;82.23
20909;BME280;10614;53.198;6.570;2023-08-17T10:59:43;102180.75;;;23.98;81.41
20909;BME280;10614;53.198;6.570;2023-08-17T11:01:51;102086.78;;;23.72;81.14
20909;BME280;10614;53.198;6.570;2023-08-17T11:04:16;102088.69;;;23.94;81.30
20909;BME280;10614;53.198;6.570;2023-08-17T11:06:30;102080.66;;;24.06;78.69
20909;BME280;10614;53.198;6.570;2023-08-17T11:08:34;102127.06;;;24.43;77.08
20909;BME280;10614;53.198;6.570;2023-08-17T11:10:38;102084.31;;;24.16;76.97
20909;BME280;10614;53.198;6.570;2023-08-17T11:12:41;102166.38;;;24.57;76.11
20909;BME280;10614;53.198;6.570;2023-08-17T11:14:45;102164.50;;;24.46;76.72
20909;BME280;10614;53.198;6.570;2023-08-17T11:16:49;102088.09;;;23.91;77.00
20909;BME280;10614;53.198;6.570;2023-08-17T11:18:52;102088.91;;;23.80;77.47
20909;BME280;10614;53.198;6.570;2023-08-17T11:20:58;102168.16;;;24.34;79.61
20909;BME280;10614;53.198;6.570;2023-08-17T11:23:00;102168.06;;;24.47;77.17
20909;BME280;10614;53.198;6.570;2023-08-17T11:25:01;102130.22;;;24.26;76.67
20909;BME280;10614;53.198;6.570;2023-08-17T11:27:04;102149.31;;;24.34;76.37
20909;BME280;10614;53.198;6.570;2023-08-17T11:29:06;102081.81;;;23.90;77.02
20909;BME280;10614;53.198;6.570;2023-08-17T11:31:10;102148.69;;;24.30;77.32
20909;BME280;10614;53.198;6.570;2023-08-17T11:33:12;102152.75;;;24.36;77.91
20909;BME280;10614;53.198;6.570;2023-08-17T11:35:15;102110.28;;;24.17;78.21
20909;BME280;10614;53.198;6.570;2023-08-17T11:37:20;102132.53;;;24.30;77.62
20909;BME280;10614;53.198;6.570;2023-08-17T11:39:23;102161.47;;;24.51;76.84
20909;BME280;10614;53.198;6.570;2023-08-17T11:41:26;102125.38;;;24.42;77.76
20909;BME280;10614;53.198;6.570;2023-08-17T11:43:31;102126.97;;;24.44;75.86
20909;BME280;10614;53.198;6.570;2023-08-17T11:45:35;102097.94;;;24.26;76.59
20909;BME280;10614;53.198;6.570;2023-08-17T11:47:38;102154.53;;;24.59;75.92
20909;BME280;10614;53.198;6.570;2023-08-17T11:49:47;102134.41;;;24.41;75.60
20909;BME280;10614;53.198;6.570;2023-08-17T11:51:51;102069.44;;;24.12;76.06
20909;BME280;10614;53.198;6.570;2023-08-17T11:53:53;102107.09;;;24.34;76.22
20909;BME280;10614;53.198;6.570;2023-08-17T11:55:56;102147.66;;;24.55;75.76
20909;BME280;10614;53.198;6.570;2023-08-17T11:57:58;102078.91;;;23.93;75.46
20909;BME280;10614;53.198;6.570;2023-08-17T12:00:02;102128.41;;;24.37;77.11
20909;BME280;10614;53.198;6.570;2023-08-17T12:02:07;102098.31;;;24.21;77.27
20909;BME280;10614;53.198;6.570;2023-08-17T12:04:11;102107.09;;;24.34;76.38
20909;BME280;10614;53.198;6.570;2023-08-17T12:06:16;102107.09;;;24.34;76.52
20909;BME280;10614;53.198;6.570;2023-08-17T12:08:18;102124.25;;;24.44;77.14
20909;BME280;10614;53.198;6.570;2023-08-17T12:10:20;102139.88;;;24.39;75.78
20909;BME280;10614;53.198;6.570;2023-08-17T12:12:23;102135.22;;;24.19;76.21
20909;BME280;10614;53.198;6.570;2023-08-17T12:14:26;102127.81;;;23.98;76.35
20909;BME280;10614;53.198;6.570;2023-08-17T12:16:29;102117.38;;;23.83;77.53
20909;BME280;10614;53.198;6.570;2023-08-17T12:18:32;102096.47;;;23.51;78.08
20909;BME280;10614;53.198;6.570;2023-08-17T12:20:34;102135.38;;;23.69;79.51
20909;BME280;10614;53.198;6.570;2023-08-17T12:22:39;102100.94;;;23.50;80.13
20909;BME280;10614;53.198;6.570;2023-08-17T12:24:40;102135.16;;;23.72;81.15
20909;BME280;10614;53.198;6.570;2023-08-17T12:26:43;102132.41;;;23.85;81.75
20909;BME280;10614;53.198;6.570;2023-08-17T12:28:46;102130.88;;;23.94;80.95
20909;BME280;10614;53.198;6.570;2023-08-17T12:30:57;102126.47;;;23.93;80.12
20909;BME280;10614;53.198;6.570;2023-08-17T12:32:59;102042.88;;;23.36;79.96
20909;BME280;10614;53.198;6.570;2023-08-17T12:35:04;102132.31;;;23.87;79.56
20909;BME280;10614;53.198;6.570;2023-08-17T12:37:08;102096.63;;;23.60;79.58
20909;BME280;10614;53.198;6.570;2023-08-17T12:39:12;102127.88;;;23.86;80.86
20909;BME280;10614;53.198;6.570;2023-08-17T12:41:14;102048.66;;;23.43;81.05
20909;BME280;10614;53.198;6.570;2023-08-17T12:43:16;102099.22;;;23.73;81.46
20909;BME280;10614;53.198;6.570;2023-08-17T12:45:18;102126.34;;;23.94;82.09
20909;BME280;10614;53.198;6.570;2023-08-17T12:47:21;102121.91;;;23.82;81.92
20909;BME280;10614;53.198;6.570;2023-08-17T12:49:25;102103.84;;;23.71;82.42
20909;BME280;10614;53.198;6.570;2023-08-17T12:51:27;102068.94;;;23.47;83.15
20909;BME280;10614;53.198;6.570;2023-08-17T12:53:29;102104.19;;;23.67;82.30
20909;BME280;10614;53.198;6.570;2023-08-17T12:55:32;102137.00;;;23.72;82.32
20909;BME280;10614;53.198;6.570;2023-08-17T12:57:35;102113.09;;;23.56;82.59
20909;BME280;10614;53.198;6.570;2023-08-17T12:59:36;102070.78;;;23.47;83.85
20909;BME280;10614;53.198;6.570;2023-08-17T13:01:38;102089.16;;;23.64;82.76
20909;BME280;10614;53.198;6.570;2023-08-17T13:03:40;102057.69;;;23.42;81.75
20909;BME280;10614;53.198;6.570;2023-08-17T13:05:42;102084.94;;;23.73;82.76
20909;BME280;10614;53.198;6.570;2023-08-17T13:07:45;102088.44;;;23.86;82.62
20909;BME280;10614;53.198;6.570;2023-08-17T13:09:47;102080.22;;;23.88;82.43
20909;BME280;10614;53.198;6.570;2023-08-17T13:11:50;102046.97;;;23.77;81.53
20909;BME280;10614;53.198;6.570;2023-08-17T13:13:52;102083.31;;;23.94;81.50
20909;BME280;10614;53.198;6.570;2023-08-17T13:15:53;102131.53;;;24.20;81.46
20909;BME280;10614;53.198;6.570;2023-08-17T13:17:55;102129.09;;;24.17;81.53
20909;BME280;10614;53.198;6.570;2023-08-17T13:19:58;102078.19;;;23.67;81.07
20909;BME280;10614;53.198;6.570;2023-08-17T13:22:04;102129.63;;;23.87;81.93
20909;BME280;10614;53.198;6.570;2023-08-17T13:24:06;102084.28;;;23.58;82.79
20909;BME280;10614;53.198;6.570;2023-08-17T13:26:09;102129.22;;;23.80;83.10